createdAt,value
2019-06-07T00:01:51.920Z,16.40
2019-06-07T00:04:21.670Z,16.30
2019-06-07T00:06:52.297Z,16.30
2019-06-07T00:09:22.754Z,16.20
2019-06-07T00:11:52.637Z,16.30
2019-06-07T00:14:22.266Z,16.20
2019-06-07T00:16:51.919Z,16.20
2019-06-07T00:19:21.509Z,16.20
2019-06-07T00:22:15.781Z,16.20
2019-06-07T00:24:22.491Z,16.20
2019-06-07T00:26:58.972Z,16.20
2019-06-07T00:29:23.931Z,16.20
2019-06-07T00:31:53.562Z,16.20
2019-06-07T00:34:24.938Z,16.20
2019-06-07T00:36:54.725Z,16.20
2019-06-07T00:39:25.835Z,16.20
2019-06-07T00:41:55.617Z,16.30
2019-06-07T00:44:25.224Z,16.30
2019-06-07T00:46:54.818Z,16.30
2019-06-07T00:49:39.831Z,16.40
2019-06-07T00:51:56.119Z,16.20
2019-06-07T00:54:25.780Z,16.10
2019-06-07T00:56:55.398Z,16.10
2019-06-07T00:59:29.618Z,15.80
2019-06-07T01:01:57.657Z,15.80
2019-06-07T01:04:27.397Z,15.60
2019-06-07T01:06:58.031Z,15.60
2019-06-07T01:09:27.656Z,15.70
2019-06-07T01:11:57.273Z,15.90
2019-06-07T01:14:28.697Z,16.00
2019-06-07T01:17:22.158Z,16.10
2019-06-07T01:19:30.059Z,15.90
2019-06-07T01:21:59.652Z,15.80
2019-06-07T01:24:30.681Z,15.60
2019-06-07T01:27:00.267Z,15.50
2019-06-07T01:29:31.132Z,15.40
2019-06-07T01:32:01.060Z,15.50
2019-06-07T01:34:30.697Z,15.50
2019-06-07T01:37:00.549Z,15.50
2019-06-07T01:39:31.942Z,15.50
2019-06-07T01:42:01.449Z,15.50
2019-06-07T01:44:31.478Z,15.40
2019-06-07T01:47:01.232Z,15.40
2019-06-07T01:49:30.862Z,15.50
2019-06-07T01:52:00.461Z,15.50
2019-06-07T01:57:01.448Z,15.60
2019-06-07T01:59:31.920Z,15.50
2019-06-07T02:02:01.945Z,15.40
2019-06-07T02:04:33.046Z,15.40
2019-06-07T02:07:04.258Z,15.50
2019-06-07T02:09:33.832Z,15.60
2019-06-07T02:12:24.017Z,15.60
2019-06-07T02:14:34.765Z,15.70
2019-06-07T02:17:04.396Z,15.80
2019-06-07T02:19:34.026Z,15.90
2019-06-07T02:22:04.506Z,15.80
2019-06-07T02:24:35.934Z,15.90
2019-06-07T02:27:05.660Z,15.70
2019-06-07T02:29:35.326Z,15.60
2019-06-07T02:32:06.019Z,15.50
2019-06-07T02:34:39.318Z,15.50
2019-06-07T02:37:07.014Z,15.60
2019-06-07T02:39:40.887Z,15.60
2019-06-07T02:42:09.140Z,15.80
2019-06-07T02:44:40.467Z,15.80
2019-06-07T02:47:10.311Z,15.80
2019-06-07T02:49:42.013Z,15.80
2019-06-07T02:52:11.392Z,15.80
2019-06-07T02:54:41.155Z,15.90
2019-06-07T02:57:10.905Z,15.80
2019-06-07T03:00:05.065Z,15.80
2019-06-07T03:02:12.291Z,15.80
2019-06-07T03:04:44.922Z,15.70
2019-06-07T03:07:16.420Z,15.70
2019-06-07T03:09:47.957Z,15.70
2019-06-07T03:12:20.395Z,15.60
2019-06-07T03:14:52.785Z,15.60
2019-06-07T03:17:38.365Z,15.40
2019-06-07T03:20:09.328Z,15.30
2019-06-07T03:22:42.279Z,15.30
2019-06-07T03:25:13.193Z,15.30
2019-06-07T03:27:49.557Z,15.20
2019-06-07T03:32:48.416Z,15.30
2019-06-07T03:35:18.420Z,15.30
2019-06-07T03:37:48.350Z,15.40
2019-06-07T03:40:18.043Z,15.20
2019-06-07T03:42:47.946Z,15.20
2019-06-07T03:45:17.542Z,15.20
2019-06-07T03:50:16.493Z,15.20
2019-06-07T04:00:15.295Z,15.10
2019-06-07T04:02:44.937Z,15.20
2019-06-07T04:05:14.781Z,15.20
2019-06-07T04:07:44.697Z,15.20
2019-06-07T04:10:15.041Z,15.30
2019-06-07T04:12:44.900Z,15.40
2019-06-07T04:15:14.581Z,15.30
2019-06-07T04:18:00.825Z,15.20
2019-06-07T04:20:16.084Z,15.30
2019-06-07T04:22:45.676Z,15.40
2019-06-07T04:25:15.353Z,15.50
2019-06-07T04:27:44.960Z,15.50
2019-06-07T04:30:16.268Z,15.50
2019-06-07T04:32:45.951Z,15.40
2019-06-07T04:35:15.549Z,15.40
2019-06-07T04:37:45.809Z,15.40
2019-06-07T04:40:15.468Z,15.50
2019-06-07T04:42:46.025Z,15.50
2019-06-07T04:45:32.915Z,15.50
2019-06-07T04:47:48.753Z,15.50
2019-06-07T04:50:18.468Z,15.60
2019-06-07T04:52:48.103Z,15.80
2019-06-07T04:55:18.014Z,15.80
2019-06-07T04:57:47.611Z,15.90
2019-06-07T05:00:48.463Z,15.90
2019-06-07T05:02:52.166Z,16.00
2019-06-07T05:05:21.773Z,16.10
2019-06-07T05:07:51.390Z,16.20
2019-06-07T05:10:21.186Z,16.20
2019-06-07T05:12:50.815Z,16.30
2019-06-07T05:15:21.401Z,16.30
2019-06-07T05:17:51.025Z,16.30
2019-06-07T05:20:20.680Z,16.20
2019-06-07T05:22:50.296Z,16.20
2019-06-07T05:25:19.904Z,16.10
2019-06-07T05:27:49.513Z,16.10
2019-06-07T05:31:03.004Z,16.20
2019-06-07T05:33:08.637Z,16.10
2019-06-07T05:35:41.740Z,16.30
2019-06-07T05:38:10.933Z,16.30
2019-06-07T05:40:43.733Z,16.20
2019-06-07T05:43:24.386Z,16.20
2019-06-07T05:45:54.053Z,16.30
2019-06-07T05:48:24.359Z,16.40
2019-06-07T05:50:57.017Z,16.50
2019-06-07T05:53:25.381Z,16.50
2019-06-07T05:55:55.036Z,16.70
2019-06-07T05:58:24.644Z,16.90
2019-06-07T06:00:54.249Z,16.80
2019-06-07T06:03:24.117Z,16.90
2019-06-07T06:05:55.583Z,17.10
2019-06-07T06:08:26.009Z,17.10
2019-06-07T06:10:55.625Z,17.10
2019-06-07T06:13:25.216Z,17.10
2019-06-07T06:16:01.784Z,17.20
2019-06-07T06:18:26.219Z,16.70
2019-06-07T06:21:15.718Z,17.30
2019-06-07T06:23:27.317Z,17.40
2019-06-07T06:25:58.185Z,17.40
2019-06-07T06:28:28.113Z,17.30
2019-06-07T06:30:57.730Z,17.30
2019-06-07T06:33:34.129Z,17.50
2019-06-07T06:35:58.624Z,17.60
2019-06-07T06:38:28.225Z,17.70
2019-06-07T06:41:14.762Z,17.50
2019-06-07T06:43:29.219Z,17.70
2019-06-07T06:45:58.837Z,17.70
2019-06-07T06:48:28.527Z,17.80
2019-06-07T06:50:58.210Z,17.90
2019-06-07T06:53:27.821Z,17.80
2019-06-07T06:55:57.408Z,17.90
2019-06-07T06:58:27.031Z,18.00
2019-06-07T07:01:06.070Z,18.10
2019-06-07T07:04:00.153Z,18.20
2019-06-07T07:06:24.086Z,18.10
2019-06-07T07:08:30.882Z,17.90
2019-06-07T07:11:00.465Z,17.80
2019-06-07T07:13:30.080Z,18.10
2019-06-07T07:16:02.565Z,18.10
2019-06-07T07:18:32.162Z,18.00
2019-06-07T07:21:01.777Z,18.10
2019-06-07T07:23:31.415Z,18.10
2019-06-07T07:26:01.081Z,18.10
2019-06-07T07:28:31.137Z,18.10
2019-06-07T07:31:00.739Z,18.00
2019-06-07T07:34:20.996Z,18.00
2019-06-07T07:36:23.246Z,18.20
2019-06-07T07:38:33.303Z,18.10
2019-06-07T07:41:14.471Z,18.20
2019-06-07T07:43:35.575Z,18.30
2019-06-07T07:46:28.067Z,18.40
2019-06-07T07:48:37.200Z,18.40
2019-06-07T07:51:06.911Z,18.60
2019-06-07T07:53:48.566Z,18.50
2019-06-07T07:56:07.954Z,18.50
2019-06-07T07:58:38.062Z,18.50
2019-06-07T08:01:11.057Z,18.60
2019-06-07T08:03:39.013Z,18.70
2019-06-07T08:06:08.925Z,18.70
2019-06-07T08:08:38.540Z,18.80
2019-06-07T08:11:09.225Z,18.80
2019-06-07T08:13:38.819Z,18.80
2019-06-07T08:16:14.842Z,18.80
2019-06-07T08:18:40.064Z,18.80
2019-06-07T08:21:24.699Z,18.90
2019-06-07T08:23:41.112Z,18.80
2019-06-07T08:26:10.739Z,18.70
2019-06-07T08:28:40.384Z,18.80
2019-06-07T08:31:09.988Z,18.70
2019-06-07T08:33:39.609Z,18.70
2019-06-07T08:36:21.908Z,18.70
2019-06-07T08:38:47.996Z,18.70
2019-06-07T08:41:12.837Z,18.40
2019-06-07T08:43:42.676Z,18.50
2019-06-07T08:46:12.350Z,18.70
2019-06-07T08:48:43.035Z,18.60
2019-06-07T08:51:12.612Z,18.70
2019-06-07T08:53:42.213Z,18.90
2019-06-07T08:56:12.602Z,18.90
2019-06-07T08:58:42.193Z,18.90
2019-06-07T09:01:11.809Z,18.80
2019-06-07T09:03:41.432Z,18.90
2019-06-07T09:06:53.747Z,18.90
2019-06-07T09:08:42.418Z,18.90
2019-06-07T09:11:12.644Z,18.80
2019-06-07T09:13:42.258Z,18.80
2019-06-07T09:16:12.865Z,18.90
2019-06-07T09:18:44.779Z,18.80
2019-06-07T09:21:13.826Z,18.80
2019-06-07T09:23:43.761Z,18.70
2019-06-07T09:26:18.448Z,18.80
2019-06-07T09:28:45.400Z,19.00
2019-06-07T09:31:15.059Z,19.00
2019-06-07T09:33:44.741Z,19.20
2019-06-07T09:36:14.553Z,19.20
2019-06-07T09:38:45.409Z,19.20
2019-06-07T09:41:15.032Z,19.30
2019-06-07T09:44:13.053Z,19.30
2019-06-07T09:46:16.835Z,19.30
2019-06-07T09:49:12.148Z,19.40
2019-06-07T09:51:20.669Z,19.40
2019-06-07T09:53:50.585Z,19.40
2019-06-07T09:56:20.209Z,19.30
2019-06-07T09:58:52.792Z,19.40
2019-06-07T10:01:21.156Z,19.40
2019-06-07T10:03:51.729Z,19.30
2019-06-07T10:06:21.352Z,19.30
2019-06-07T10:11:22.267Z,19.50
2019-06-07T10:13:51.964Z,19.40
2019-06-07T10:16:21.555Z,19.50
2019-06-07T10:18:52.282Z,19.50
2019-06-07T10:21:21.969Z,19.50
2019-06-07T10:23:51.568Z,19.60
2019-06-07T10:26:21.176Z,19.80
2019-06-07T10:28:53.386Z,19.80
2019-06-07T10:31:22.073Z,19.90
2019-06-07T10:33:51.692Z,20.00
2019-06-07T10:36:21.294Z,20.00
2019-06-07T10:38:51.052Z,19.90
2019-06-07T10:41:20.692Z,20.00
2019-06-07T10:43:50.321Z,20.10
2019-06-07T10:46:19.945Z,20.20
2019-06-07T10:48:50.107Z,20.30
2019-06-07T10:51:19.991Z,20.30
2019-06-07T10:53:49.603Z,20.20
2019-06-07T10:56:19.284Z,20.30
2019-06-07T10:58:49.241Z,20.30
2019-06-07T11:01:18.908Z,20.30
2019-06-07T11:03:48.577Z,20.50
2019-06-07T11:06:19.948Z,20.50
2019-06-07T11:08:50.645Z,20.50
2019-06-07T11:11:20.561Z,20.50
2019-06-07T11:13:52.448Z,20.50
2019-06-07T11:16:21.499Z,20.40
2019-06-07T11:18:51.409Z,20.40
2019-06-07T11:21:21.205Z,20.30
2019-06-07T11:23:50.806Z,20.30
2019-06-07T11:26:20.657Z,20.30
2019-06-07T11:28:50.259Z,20.30
2019-06-07T11:31:19.844Z,20.20
2019-06-07T11:33:49.473Z,20.30
2019-06-07T11:36:19.154Z,20.40
2019-06-07T11:38:48.822Z,20.50
2019-06-07T11:41:19.493Z,20.60
2019-06-07T11:43:49.148Z,20.70
2019-06-07T11:46:18.741Z,20.70
2019-06-07T11:48:48.358Z,20.70
2019-06-07T11:51:18.918Z,20.60
2019-06-07T11:53:48.641Z,20.60
2019-06-07T11:56:18.315Z,20.80
2019-06-07T11:58:48.992Z,20.80
2019-06-07T12:01:18.873Z,20.70
2019-06-07T12:03:48.483Z,20.70
2019-06-07T12:06:18.208Z,20.70
2019-06-07T12:08:49.788Z,20.70
2019-06-07T12:11:19.473Z,20.80
2019-06-07T12:13:49.059Z,20.80
2019-06-07T12:16:19.746Z,20.80
2019-06-07T12:21:19.816Z,20.90
2019-06-07T12:23:49.792Z,20.90
2019-06-07T12:26:20.625Z,21.00
2019-06-07T12:28:50.502Z,21.00
2019-06-07T12:31:21.104Z,21.00
2019-06-07T12:33:51.145Z,21.00
2019-06-07T12:36:22.035Z,21.10
2019-06-07T12:38:51.751Z,21.10
2019-06-07T12:41:22.400Z,21.10
2019-06-07T12:43:52.105Z,21.30
2019-06-07T12:46:26.820Z,21.30
2019-06-07T12:48:53.982Z,21.40
2019-06-07T12:51:23.652Z,21.60
2019-06-07T12:53:53.254Z,21.60
2019-06-07T12:56:24.203Z,21.70
2019-06-07T12:58:54.074Z,21.70
2019-06-07T13:01:24.846Z,21.80
2019-06-07T13:03:54.693Z,21.90
2019-06-07T13:06:24.319Z,21.80
2019-06-07T13:08:53.944Z,21.90
2019-06-07T13:11:28.187Z,21.90
2019-06-07T13:13:54.856Z,21.80
2019-06-07T13:16:24.612Z,21.80
2019-06-07T13:18:54.213Z,21.80
2019-06-07T13:21:24.816Z,21.70
2019-06-07T13:23:54.453Z,21.70
2019-06-07T13:26:25.054Z,21.60
2019-06-07T13:28:55.830Z,21.50
2019-06-07T13:31:25.437Z,21.50
2019-06-07T13:33:55.049Z,21.50
2019-06-07T13:36:24.723Z,21.60
2019-06-07T13:38:54.334Z,21.50
2019-06-07T13:41:36.741Z,21.50
2019-06-07T13:43:55.243Z,21.60
2019-06-07T13:46:25.332Z,21.60
2019-06-07T13:48:56.171Z,21.70
2019-06-07T13:51:26.949Z,21.70
2019-06-07T13:53:57.117Z,21.70
2019-06-07T13:56:28.241Z,21.80
2019-06-07T13:58:57.989Z,21.80
2019-06-07T14:01:29.034Z,21.80
2019-06-07T14:03:58.846Z,21.80
2019-06-07T14:06:30.034Z,21.90
2019-06-07T14:08:59.973Z,21.80
2019-06-07T14:11:31.551Z,21.80
2019-06-07T14:14:01.166Z,21.90
2019-06-07T14:16:30.781Z,21.90
2019-06-07T14:19:00.379Z,21.90
2019-06-07T14:21:30.885Z,21.90
2019-06-07T14:24:00.664Z,21.90
2019-06-07T14:26:32.383Z,21.90
2019-06-07T14:29:01.569Z,22.00
2019-06-07T14:31:32.246Z,22.10
2019-06-07T14:36:33.317Z,22.40
2019-06-07T14:39:03.219Z,22.30
2019-06-07T14:41:33.971Z,22.40
2019-06-07T14:44:04.091Z,22.40
2019-06-07T14:46:34.416Z,22.30
2019-06-07T14:49:04.261Z,22.30
2019-06-07T14:51:35.240Z,22.20
2019-06-07T14:54:05.158Z,22.20
2019-06-07T14:56:35.284Z,22.20
2019-06-07T14:59:05.288Z,22.30
2019-06-07T15:01:35.648Z,22.30
2019-06-07T15:04:05.735Z,22.40
2019-06-07T15:06:35.332Z,22.40
2019-06-07T15:09:06.649Z,22.40
2019-06-07T15:11:36.333Z,22.50
2019-06-07T15:14:06.091Z,22.60
2019-06-07T15:16:35.896Z,22.60
2019-06-07T15:19:05.752Z,22.60
2019-06-07T15:21:35.445Z,22.70
2019-06-07T15:24:05.334Z,22.70
2019-06-07T15:26:36.330Z,22.80
2019-06-07T15:29:06.223Z,22.80
2019-06-07T15:31:38.565Z,22.90
2019-06-07T15:34:08.088Z,22.80
2019-06-07T15:36:38.713Z,22.80
2019-06-07T15:39:09.056Z,23.00
2019-06-07T15:41:39.739Z,23.00
2019-06-07T15:44:10.830Z,23.10
2019-06-07T15:46:40.490Z,23.10
2019-06-07T15:49:11.208Z,23.20
2019-06-07T15:51:41.079Z,23.20
2019-06-07T15:54:10.961Z,23.30
2019-06-07T15:56:41.302Z,23.30
2019-06-07T15:59:11.129Z,23.40
2019-06-07T16:01:42.095Z,23.40
2019-06-07T16:04:12.227Z,23.50
2019-06-07T16:06:43.518Z,23.40
2019-06-07T16:09:13.360Z,23.40
2019-06-07T16:11:43.679Z,23.40
2019-06-07T16:14:14.073Z,23.40
2019-06-07T16:16:43.739Z,23.40
2019-06-07T16:19:13.721Z,23.40
2019-06-07T16:21:43.740Z,23.40
2019-06-07T16:24:13.537Z,23.40
2019-06-07T16:26:44.447Z,23.50
2019-06-07T16:29:14.384Z,23.40
2019-06-07T16:31:45.043Z,23.40
2019-06-07T16:34:15.964Z,23.50
2019-06-07T16:36:46.912Z,23.50
2019-06-07T16:39:16.778Z,23.50
2019-06-07T16:41:46.418Z,23.50
2019-06-07T16:44:16.017Z,23.50
2019-06-07T16:46:45.769Z,23.60
2019-06-07T16:49:15.373Z,23.60
2019-06-07T16:51:45.373Z,23.60
2019-06-07T16:54:16.217Z,23.70
2019-06-07T16:56:49.093Z,23.60
2019-06-07T16:59:17.202Z,23.60
2019-06-07T17:01:46.841Z,23.60
2019-06-07T17:04:16.534Z,23.60
2019-06-07T17:06:46.490Z,23.50
2019-06-07T17:09:16.696Z,23.50
2019-06-07T17:11:46.656Z,23.50
2019-06-07T17:14:16.246Z,23.50
2019-06-07T17:16:46.493Z,23.50
2019-06-07T17:19:17.236Z,23.50
2019-06-07T17:21:47.554Z,23.40
2019-06-07T17:24:17.733Z,23.40
2019-06-07T17:26:47.679Z,23.30
2019-06-07T17:29:17.439Z,23.20
2019-06-07T17:31:48.239Z,23.20
2019-06-07T17:34:18.992Z,23.20
2019-06-07T17:36:48.792Z,23.20
2019-06-07T17:39:18.586Z,23.10
2019-06-07T17:42:01.056Z,23.20
2019-06-07T17:44:19.634Z,23.20
2019-06-07T17:46:49.910Z,23.20
2019-06-07T17:49:19.750Z,23.20
2019-06-07T17:51:49.971Z,23.20
2019-06-07T17:54:19.713Z,23.20
2019-06-07T17:56:50.518Z,23.20
2019-06-07T17:59:20.228Z,23.10
2019-06-07T18:02:12.516Z,23.10
2019-06-07T18:04:21.356Z,23.00
2019-06-07T18:06:51.860Z,23.00
2019-06-07T18:09:24.275Z,23.00
2019-06-07T18:11:54.201Z,22.90
2019-06-07T18:14:23.917Z,22.90
2019-06-07T18:16:54.843Z,22.90
2019-06-07T18:19:24.728Z,22.80
2019-06-07T18:21:58.414Z,22.80
2019-06-07T18:24:25.677Z,22.80
2019-06-07T18:26:55.831Z,22.80
2019-06-07T18:29:25.438Z,22.80
2019-06-07T18:31:55.265Z,22.70
2019-06-07T18:34:25.076Z,22.80
2019-06-07T18:36:55.207Z,22.80
2019-06-07T18:39:24.925Z,22.80
2019-06-07T18:41:55.369Z,22.80
2019-06-07T18:44:25.213Z,22.80
2019-06-07T18:46:54.810Z,22.50
2019-06-07T18:49:24.405Z,22.10
2019-06-07T18:52:15.936Z,21.90
2019-06-07T18:54:46.752Z,21.80
2019-06-07T18:57:17.581Z,21.70
2019-06-07T18:59:48.295Z,21.60
2019-06-07T19:02:18.212Z,21.50
2019-06-07T19:04:48.035Z,21.50
2019-06-07T19:07:17.744Z,21.50
2019-06-07T19:09:48.450Z,21.50
2019-06-07T19:12:19.192Z,21.40
2019-06-07T19:14:49.330Z,21.40
2019-06-07T19:17:19.077Z,21.30
2019-06-07T19:19:49.854Z,21.30
2019-06-07T19:22:19.589Z,21.20
2019-06-07T19:24:50.014Z,21.10
2019-06-07T19:27:19.668Z,21.10
2019-06-07T19:29:50.765Z,21.00
2019-06-07T19:32:21.073Z,20.90
2019-06-07T19:34:51.163Z,20.90
2019-06-07T19:37:21.036Z,20.90
2019-06-07T19:39:51.721Z,20.90
2019-06-07T19:42:21.494Z,20.90
2019-06-07T19:44:56.308Z,20.90
2019-06-07T19:47:22.388Z,20.90
2019-06-07T19:49:53.072Z,20.90
2019-06-07T19:52:22.922Z,20.90
2019-06-07T19:54:53.752Z,20.80
2019-06-07T19:57:23.529Z,20.50
2019-06-07T19:59:53.368Z,20.60
2019-06-07T20:02:23.126Z,20.50
2019-06-07T20:04:54.085Z,20.40
2019-06-07T20:07:24.012Z,20.40
2019-06-07T20:09:54.434Z,20.30
2019-06-07T20:12:24.213Z,20.40
2019-06-07T20:15:06.434Z,20.50
2019-06-07T20:17:25.137Z,20.50
2019-06-07T20:19:56.028Z,20.60
2019-06-07T20:22:26.128Z,20.70
2019-06-07T20:24:56.764Z,20.60
2019-06-07T20:27:26.512Z,20.50
2019-06-07T20:29:56.162Z,20.60
2019-06-07T20:32:25.788Z,20.50
2019-06-07T20:34:57.597Z,20.40
2019-06-07T20:37:27.377Z,20.40
2019-06-07T20:39:57.085Z,20.50
2019-06-07T20:42:26.857Z,20.50
2019-06-07T20:44:57.540Z,20.40
2019-06-07T20:47:27.373Z,20.30
2019-06-07T20:49:57.892Z,20.20
2019-06-07T20:52:27.708Z,20.20
2019-06-07T20:54:58.431Z,20.30
2019-06-07T20:57:28.311Z,20.20
2019-06-07T20:59:58.830Z,20.00
2019-06-07T21:02:28.541Z,19.90
2019-06-07T21:04:59.041Z,19.80
2019-06-07T21:07:28.835Z,19.70
2019-06-07T21:09:59.495Z,19.80
2019-06-07T21:12:29.256Z,19.80
2019-06-07T21:15:02.074Z,19.90
2019-06-07T21:17:30.284Z,19.90
2019-06-07T21:20:00.548Z,19.50
2019-06-07T21:22:31.445Z,19.40
2019-06-07T21:25:03.099Z,19.40
2019-06-07T21:27:32.932Z,19.40
2019-06-07T21:30:03.399Z,19.40
2019-06-07T21:32:33.277Z,19.40
2019-06-07T21:35:03.851Z,19.40
2019-06-07T21:37:33.566Z,19.40
2019-06-07T21:40:04.185Z,19.30
2019-06-07T21:42:33.989Z,19.20
2019-06-07T21:45:05.877Z,19.10
2019-06-07T21:47:35.045Z,18.90
2019-06-07T21:50:06.511Z,18.80
2019-06-07T21:52:36.556Z,18.70
2019-06-07T21:55:06.952Z,18.80
2019-06-07T21:57:36.895Z,18.90
2019-06-07T22:00:11.428Z,19.00
2019-06-07T22:02:43.085Z,18.90
2019-06-07T22:05:13.876Z,18.90
2019-06-07T22:07:43.599Z,18.80
2019-06-07T22:10:14.451Z,18.80
2019-06-07T22:12:44.981Z,18.70
2019-06-07T22:15:30.937Z,18.70
2019-06-07T22:17:46.770Z,18.60
2019-06-07T22:20:16.713Z,18.70
2019-06-07T22:22:46.307Z,18.80
2019-06-07T22:25:16.104Z,18.70
2019-06-07T22:27:45.696Z,18.70
2019-06-07T22:30:15.604Z,18.70
2019-06-07T22:32:46.165Z,18.60
2019-06-07T22:35:15.893Z,18.60
2019-06-07T22:37:45.504Z,18.50
2019-06-07T22:40:15.406Z,18.50
2019-06-07T22:42:45.015Z,18.40
2019-06-07T22:45:14.734Z,18.40
2019-06-07T22:47:44.460Z,18.30
2019-06-07T22:50:16.361Z,18.30
2019-06-07T22:52:46.046Z,18.30
2019-06-07T22:55:16.369Z,18.30
2019-06-07T22:57:56.591Z,18.20
2019-06-07T23:00:27.720Z,18.30
2019-06-07T23:02:57.333Z,18.40
2019-06-07T23:05:26.916Z,18.50
2019-06-07T23:07:56.670Z,18.60
2019-06-07T23:10:26.363Z,18.60
2019-06-07T23:12:56.047Z,18.60
2019-06-07T23:15:26.005Z,18.60
2019-06-07T23:17:55.765Z,18.60
2019-06-07T23:20:25.354Z,18.50
2019-06-07T23:22:54.970Z,18.20
2019-06-07T23:25:24.916Z,18.20
2019-06-07T23:27:54.673Z,18.30
2019-06-07T23:30:24.267Z,18.30
2019-06-07T23:32:53.890Z,18.10
2019-06-07T23:35:23.493Z,17.90
2019-06-07T23:37:53.099Z,18.10
2019-06-07T23:40:23.166Z,17.90
2019-06-07T23:42:52.869Z,17.90
2019-06-07T23:45:22.545Z,18.00
2019-06-07T23:47:52.131Z,17.90
2019-06-07T23:50:21.924Z,17.80
2019-06-07T23:52:51.617Z,17.70
2019-06-07T23:55:22.298Z,17.70
2019-06-07T23:57:52.125Z,17.70
